sensor_id;sensor_type;location;lat;lon;timestamp;pressure;altitude;pressure_sealevel;temperature;humidity
55550;BME280;41397;49.972;18.944;2023-04-09T00:02:58;102553.66;;;10.88;64.66
55550;BME280;41397;49.972;18.944;2023-04-09T00:06:00;102549.23;;;10.86;64.86
55550;BME280;41397;49.972;18.944;2023-04-09T00:09:02;102553.73;;;10.87;64.47
55550;BME280;41397;49.972;18.944;2023-04-09T00:12:03;102552.91;;;10.85;64.71
55550;BME280;41397;49.972;18.944;2023-04-09T00:15:06;102542.86;;;10.85;64.98
55550;BME280;41397;49.972;18.944;2023-04-09T00:18:07;102550.11;;;10.86;64.67
55550;BME280;41397;49.972;18.944;2023-04-09T00:21:08;102546.57;;;10.84;64.63
55550;BME280;41397;49.972;18.944;2023-04-09T00:24:10;102549.38;;;10.83;64.71
55550;BME280;41397;49.972;18.944;2023-04-09T00:27:12;102546.57;;;10.84;64.70
55550;BME280;41397;49.972;18.944;2023-04-09T00:30:14;102547.38;;;10.86;64.55
55550;BME280;41397;49.972;18.944;2023-04-09T00:33:15;102542.79;;;10.87;64.52
55550;BME280;41397;49.972;18.944;2023-04-09T00:36:18;102550.11;;;10.86;64.62
55550;BME280;41397;49.972;18.944;2023-04-09T00:39:19;102544.71;;;10.85;64.85
55550;BME280;41397;49.972;18.944;2023-04-09T00:42:20;102540.11;;;10.85;64.68
55550;BME280;41397;49.972;18.944;2023-04-09T00:45:23;102545.52;;;10.87;64.70
55550;BME280;41397;49.972;18.944;2023-04-09T00:48:26;102546.50;;;10.86;64.62
55550;BME280;41397;49.972;18.944;2023-04-09T00:51:28;102544.71;;;10.85;64.68
55550;BME280;41397;49.972;18.944;2023-04-09T00:54:29;102547.45;;;10.85;64.77
55550;BME280;41397;49.972;18.944;2023-04-09T00:57:31;102555.02;;;10.80;64.82
55550;BME280;41397;49.972;18.944;2023-04-09T01:00:34;102553.20;;;10.80;65.10
55550;BME280;41397;49.972;18.944;2023-04-09T01:03:36;102551.34;;;10.81;65.02
55550;BME280;41397;49.972;18.944;2023-04-09T01:06:52;102553.20;;;10.80;65.26
55550;BME280;41397;49.972;18.944;2023-04-09T01:13:14;102557.12;;;10.75;65.44
55550;BME280;41397;49.972;18.944;2023-04-09T01:16:18;102557.05;;;10.76;65.33
55550;BME280;41397;49.972;18.944;2023-04-09T01:19:33;102549.09;;;10.72;65.38
55550;BME280;41397;49.972;18.944;2023-04-09T01:29:17;102558.11;;;10.74;65.19
55550;BME280;41397;49.972;18.944;2023-04-09T01:32:21;102558.19;;;10.72;65.15
55550;BME280;41397;49.972;18.944;2023-04-09T01:35:24;102555.47;;;10.72;64.68
55550;BME280;41397;49.972;18.944;2023-04-09T01:38:26;102553.61;;;10.73;64.76
55550;BME280;41397;49.972;18.944;2023-04-09T01:41:30;102551.65;;;10.75;65.15
55550;BME280;41397;49.972;18.944;2023-04-09T01:44:33;102551.59;;;10.76;64.66
55550;BME280;41397;49.972;18.944;2023-04-09T01:47:35;102552.45;;;10.77;64.60
55550;BME280;41397;49.972;18.944;2023-04-09T01:50:37;102558.19;;;10.72;64.61
55550;BME280;41397;49.972;18.944;2023-04-09T01:53:39;102559.33;;;10.68;64.73
55550;BME280;41397;49.972;18.944;2023-04-09T01:56:45;102565.50;;;10.72;64.93
55550;BME280;41397;49.972;18.944;2023-04-09T01:59:47;102558.27;;;10.71;65.11
55550;BME280;41397;49.972;18.944;2023-04-09T02:09:16;102565.60;;;10.70;65.15
55550;BME280;41397;49.972;18.944;2023-04-09T02:12:22;102564.72;;;10.70;65.00
55550;BME280;41397;49.972;18.944;2023-04-09T02:15:25;102568.23;;;10.72;64.79
55550;BME280;41397;49.972;18.944;2023-04-09T02:18:29;102561.07;;;10.69;64.99
55550;BME280;41397;49.972;18.944;2023-04-09T02:21:31;102572.92;;;10.70;65.42
55550;BME280;41397;49.972;18.944;2023-04-09T02:24:32;102562.93;;;10.69;65.30
55550;BME280;41397;49.972;18.944;2023-04-09T02:27:34;102560.94;;;10.72;65.25
55550;BME280;41397;49.972;18.944;2023-04-09T02:30:35;102559.08;;;10.73;64.91
55550;BME280;41397;49.972;18.944;2023-04-09T02:33:37;102561.65;;;10.76;65.10
55550;BME280;41397;49.972;18.944;2023-04-09T02:36:38;102561.65;;;10.76;64.99
55550;BME280;41397;49.972;18.944;2023-04-09T02:39:40;102546.11;;;10.76;64.89
55550;BME280;41397;49.972;18.944;2023-04-09T02:42:41;102557.12;;;10.75;64.98
55550;BME280;41397;49.972;18.944;2023-04-09T02:45:43;102553.67;;;10.71;64.90
55550;BME280;41397;49.972;18.944;2023-04-09T02:48:45;102552.87;;;10.69;64.97
55550;BME280;41397;49.972;18.944;2023-04-09T02:51:47;102557.38;;;10.70;64.75
55550;BME280;41397;49.972;18.944;2023-04-09T02:54:48;102551.91;;;10.70;64.80
55550;BME280;41397;49.972;18.944;2023-04-09T02:57:50;102553.77;;;10.70;64.73
55550;BME280;41397;49.972;18.944;2023-04-09T03:00:54;102555.70;;;10.68;64.99
55550;BME280;41397;49.972;18.944;2023-04-09T03:03:55;102552.97;;;10.68;65.12
55550;BME280;41397;49.972;18.944;2023-04-09T03:06:57;102561.00;;;10.71;64.78
55550;BME280;41397;49.972;18.944;2023-04-09T03:09:58;102554.82;;;10.67;64.93
55550;BME280;41397;49.972;18.944;2023-04-09T03:13:03;102562.23;;;10.65;64.82
55550;BME280;41397;49.972;18.944;2023-04-09T03:16:05;102557.57;;;10.67;65.09
55550;BME280;41397;49.972;18.944;2023-04-09T03:19:06;102568.41;;;10.69;64.82
55550;BME280;41397;49.972;18.944;2023-04-09T03:22:07;102569.46;;;10.66;64.74
55550;BME280;41397;49.972;18.944;2023-04-09T03:25:11;102570.44;;;10.65;64.94
55550;BME280;41397;49.972;18.944;2023-04-09T03:28:12;102565.77;;;10.67;65.07
55550;BME280;41397;49.972;18.944;2023-04-09T03:31:14;102565.77;;;10.67;65.18
55550;BME280;41397;49.972;18.944;2023-04-09T03:34:15;102568.41;;;10.69;65.37
55550;BME280;41397;49.972;18.944;2023-04-09T03:37:19;102566.65;;;10.68;65.18
55550;BME280;41397;49.972;18.944;2023-04-09T03:40:21;102565.02;;;10.63;65.32
55550;BME280;41397;49.972;18.944;2023-04-09T03:43:22;102560.59;;;10.61;65.35
55550;BME280;41397;49.972;18.944;2023-04-09T03:46:24;102565.20;;;10.60;65.42
55550;BME280;41397;49.972;18.944;2023-04-09T03:49:27;102569.80;;;10.60;65.40
55550;BME280;41397;49.972;18.944;2023-04-09T03:52:29;102568.10;;;10.57;65.40
55550;BME280;41397;49.972;18.944;2023-04-09T03:55:30;102560.78;;;10.58;65.54
55550;BME280;41397;49.972;18.944;2023-04-09T03:58:32;102566.34;;;10.56;65.68
55550;BME280;41397;49.972;18.944;2023-04-09T04:01:36;102574.45;;;10.58;66.06
55550;BME280;41397;49.972;18.944;2023-04-09T04:04:37;102575.33;;;10.58;65.91
55550;BME280;41397;49.972;18.944;2023-04-09T04:07:38;102570.77;;;10.59;66.09
55550;BME280;41397;49.972;18.944;2023-04-09T04:10:43;102573.51;;;10.59;66.26
55550;BME280;41397;49.972;18.944;2023-04-09T04:13:44;102572.59;;;10.58;66.38
55550;BME280;41397;49.972;18.944;2023-04-09T04:16:46;102584.29;;;10.62;66.40
55550;BME280;41397;49.972;18.944;2023-04-09T04:19:47;102574.39;;;10.59;66.61
55550;BME280;41397;49.972;18.944;2023-04-09T04:22:49;102578.08;;;10.58;66.68
55550;BME280;41397;49.972;18.944;2023-04-09T04:25:53;102580.68;;;10.61;66.76
55550;BME280;41397;49.972;18.944;2023-04-09T04:28:54;102591.45;;;10.64;66.97
55550;BME280;41397;49.972;18.944;2023-04-09T04:31:56;102586.05;;;10.63;66.48
55550;BME280;41397;49.972;18.944;2023-04-09T04:34:57;102585.98;;;10.64;66.83
55550;BME280;41397;49.972;18.944;2023-04-09T04:38:01;102593.38;;;10.62;67.13
55550;BME280;41397;49.972;18.944;2023-04-09T04:41:02;102587.73;;;10.65;67.17
55550;BME280;41397;49.972;18.944;2023-04-09T04:44:04;102588.55;;;10.68;67.17
55550;BME280;41397;49.972;18.944;2023-04-09T04:47:06;102598.61;;;10.67;67.20
55550;BME280;41397;49.972;18.944;2023-04-09T04:50:09;102603.27;;;10.65;67.39
55550;BME280;41397;49.972;18.944;2023-04-09T04:53:10;102608.57;;;10.68;67.26
55550;BME280;41397;49.972;18.944;2023-04-09T04:56:15;102601.17;;;10.70;67.75
55550;BME280;41397;49.972;18.944;2023-04-09T04:59:17;102604.78;;;10.71;67.82
55550;BME280;41397;49.972;18.944;2023-04-09T05:02:19;102605.60;;;10.73;67.73
55550;BME280;41397;49.972;18.944;2023-04-09T05:05:20;102609.05;;;10.76;67.55
55550;BME280;41397;49.972;18.944;2023-04-09T05:08:21;102606.23;;;10.78;67.88
55550;BME280;41397;49.972;18.944;2023-04-09T05:11:26;102608.98;;;10.78;67.77
55550;BME280;41397;49.972;18.944;2023-04-09T05:14:27;102605.43;;;10.76;68.25
55550;BME280;41397;49.972;18.944;2023-04-09T05:17:29;102606.14;;;10.79;67.77
55550;BME280;41397;49.972;18.944;2023-04-09T05:20:31;102610.50;;;10.83;68.21
55550;BME280;41397;49.972;18.944;2023-04-09T05:23:32;102599.39;;;10.86;67.89
55550;BME280;41397;49.972;18.944;2023-04-09T05:26:33;102610.17;;;10.89;68.06
55550;BME280;41397;49.972;18.944;2023-04-09T05:29:36;102613.71;;;10.92;67.95
55550;BME280;41397;49.972;18.944;2023-04-09T05:53:41;102620.02;;;11.09;68.27
55550;BME280;41397;49.972;18.944;2023-04-09T06:07:23;102631.55;;;11.32;68.72
55550;BME280;41397;49.972;18.944;2023-04-09T06:17:41;102627.48;;;11.88;67.71
55550;BME280;41397;49.972;18.944;2023-04-09T06:45:44;102636.51;;;12.52;64.07
55550;BME280;41397;49.972;18.944;2023-04-09T06:48:59;102636.51;;;12.52;63.28
55550;BME280;41397;49.972;18.944;2023-04-09T06:59:14;102644.16;;;12.31;63.08
55550;BME280;41397;49.972;18.944;2023-04-09T07:05:47;102642.45;;;12.44;62.97
55550;BME280;41397;49.972;18.944;2023-04-09T07:08:49;102638.27;;;12.53;62.79
55550;BME280;41397;49.972;18.944;2023-04-09T07:11:50;102657.90;;;12.61;62.52
55550;BME280;41397;49.972;18.944;2023-04-09T07:14:52;102647.94;;;12.75;61.74
55550;BME280;41397;49.972;18.944;2023-04-09T07:17:54;102648.24;;;12.84;62.21
55550;BME280;41397;49.972;18.944;2023-04-09T07:20:57;102649.55;;;12.93;62.07
55550;BME280;41397;49.972;18.944;2023-04-09T07:24:01;102649.84;;;13.03;61.60
55550;BME280;41397;49.972;18.944;2023-04-09T07:27:11;102647.78;;;13.06;61.42
55550;BME280;41397;49.972;18.944;2023-04-09T07:30:13;102655.45;;;13.01;61.83
55550;BME280;41397;49.972;18.944;2023-04-09T07:33:15;102644.68;;;13.13;60.79
55550;BME280;41397;49.972;18.944;2023-04-09T07:36:16;102648.50;;;13.24;61.06
55550;BME280;41397;49.972;18.944;2023-04-09T07:39:20;102651.27;;;13.39;60.10
55550;BME280;41397;49.972;18.944;2023-04-09T07:42:23;102640.09;;;13.56;60.29
55550;BME280;41397;49.972;18.944;2023-04-09T07:45:27;102642.52;;;13.75;59.91
55550;BME280;41397;49.972;18.944;2023-04-09T07:48:28;102641.78;;;13.86;58.71
55550;BME280;41397;49.972;18.944;2023-04-09T07:51:30;102641.89;;;13.84;58.08
55550;BME280;41397;49.972;18.944;2023-04-09T07:54:33;102639.69;;;14.04;57.49
55550;BME280;41397;49.972;18.944;2023-04-09T07:57:35;102647.30;;;14.13;56.92
55550;BME280;41397;49.972;18.944;2023-04-09T08:00:37;102643.88;;;14.09;56.51
55550;BME280;41397;49.972;18.944;2023-04-09T08:03:38;102644.25;;;14.17;55.90
55550;BME280;41397;49.972;18.944;2023-04-09T08:06:43;102644.41;;;14.29;56.08
55550;BME280;41397;49.972;18.944;2023-04-09T08:09:50;102642.80;;;14.39;57.03
55550;BME280;41397;49.972;18.944;2023-04-09T08:12:52;102645.61;;;14.52;57.32
55550;BME280;41397;49.972;18.944;2023-04-09T08:15:53;102646.34;;;14.68;56.42
55550;BME280;41397;49.972;18.944;2023-04-09T08:18:55;102641.30;;;14.87;56.21
55550;BME280;41397;49.972;18.944;2023-04-09T08:21:57;102651.97;;;14.92;55.59
55550;BME280;41397;49.972;18.944;2023-04-09T08:25:11;102650.11;;;15.05;55.31
55550;BME280;41397;49.972;18.944;2023-04-09T08:28:14;102654.86;;;15.16;53.88
55550;BME280;41397;49.972;18.944;2023-04-09T08:31:15;102654.43;;;15.09;53.80
55550;BME280;41397;49.972;18.944;2023-04-09T08:34:17;102658.73;;;15.01;53.78
55550;BME280;41397;49.972;18.944;2023-04-09T08:40:52;102650.87;;;14.95;54.21
55550;BME280;41397;49.972;18.944;2023-04-09T08:43:54;102650.22;;;14.91;53.76
55550;BME280;41397;49.972;18.944;2023-04-09T08:46:56;102648.90;;;14.97;54.41
55550;BME280;41397;49.972;18.944;2023-04-09T08:49:59;102654.86;;;14.91;54.72
55550;BME280;41397;49.972;18.944;2023-04-09T08:53:04;102659.48;;;14.90;54.76
55550;BME280;41397;49.972;18.944;2023-04-09T08:59:36;102656.94;;;15.00;54.20
55550;BME280;41397;49.972;18.944;2023-04-09T09:02:37;102658.50;;;15.04;53.88
55550;BME280;41397;49.972;18.944;2023-04-09T09:05:41;102660.13;;;14.94;53.62
55550;BME280;41397;49.972;18.944;2023-04-09T09:15:29;102661.81;;;15.09;53.08
55550;BME280;41397;49.972;18.944;2023-04-09T09:18:37;102664.00;;;15.17;52.61
55550;BME280;41397;49.972;18.944;2023-04-09T09:21:57;102666.77;;;15.29;51.75
55550;BME280;41397;49.972;18.944;2023-04-09T09:43:09;102648.62;;;15.89;52.33
55550;BME280;41397;49.972;18.944;2023-04-09T10:52:29;102613.41;;;16.17;48.15
55550;BME280;41397;49.972;18.944;2023-04-09T10:55:38;102623.23;;;16.21;49.25
55550;BME280;41397;49.972;18.944;2023-04-09T10:58:40;102608.95;;;16.27;49.17
55550;BME280;41397;49.972;18.944;2023-04-09T11:05:04;102609.72;;;16.29;49.25
55550;BME280;41397;49.972;18.944;2023-04-09T11:08:08;102599.59;;;16.41;49.62
55550;BME280;41397;49.972;18.944;2023-04-09T11:11:10;102591.84;;;16.46;50.25
55550;BME280;41397;49.972;18.944;2023-04-09T11:14:18;102603.43;;;16.62;50.10
55550;BME280;41397;49.972;18.944;2023-04-09T11:28:01;102603.56;;;16.72;48.78
55550;BME280;41397;49.972;18.944;2023-04-09T11:31:04;102601.27;;;16.55;48.79
55550;BME280;41397;49.972;18.944;2023-04-09T11:34:09;102600.74;;;16.50;49.02
55550;BME280;41397;49.972;18.944;2023-04-09T11:37:14;102598.85;;;16.50;49.06
55550;BME280;41397;49.972;18.944;2023-04-09T11:40:21;102598.51;;;16.55;49.53
55550;BME280;41397;49.972;18.944;2023-04-09T11:43:23;102604.03;;;16.55;49.72
55550;BME280;41397;49.972;18.944;2023-04-09T11:46:25;102600.60;;;16.40;48.36
55550;BME280;41397;49.972;18.944;2023-04-09T12:38:30;102603.45;;;16.74;46.50
55550;BME280;41397;49.972;18.944;2023-04-09T12:41:31;102604.53;;;16.84;46.42
55550;BME280;41397;49.972;18.944;2023-04-09T12:44:33;102601.02;;;16.82;46.64
55550;BME280;41397;49.972;18.944;2023-04-09T12:47:37;102596.00;;;16.87;46.31
55550;BME280;41397;49.972;18.944;2023-04-09T12:50:43;102596.61;;;16.79;44.74
55550;BME280;41397;49.972;18.944;2023-04-09T12:53:45;102595.74;;;16.90;44.13
55550;BME280;41397;49.972;18.944;2023-04-09T12:56:47;102601.16;;;16.92;43.40
55550;BME280;41397;49.972;18.944;2023-04-09T12:59:50;102594.02;;;17.00;44.07
55550;BME280;41397;49.972;18.944;2023-04-09T13:02:52;102589.99;;;17.16;44.79
55550;BME280;41397;49.972;18.944;2023-04-09T13:05:55;102582.09;;;17.34;44.49
55550;BME280;41397;49.972;18.944;2023-04-09T13:08:57;102585.72;;;17.45;43.79
55550;BME280;41397;49.972;18.944;2023-04-09T13:12:09;102583.09;;;17.44;42.21
55550;BME280;41397;49.972;18.944;2023-04-09T13:19:08;102581.95;;;17.24;41.47
55550;BME280;41397;49.972;18.944;2023-04-09T13:22:09;102588.13;;;17.16;42.33
55550;BME280;41397;49.972;18.944;2023-04-09T13:28:38;102585.57;;;16.91;43.01
55550;BME280;41397;49.972;18.944;2023-04-09T13:31:41;102586.22;;;16.94;43.00
55550;BME280;41397;49.972;18.944;2023-04-09T13:34:42;102583.94;;;16.88;42.82
55550;BME280;41397;49.972;18.944;2023-04-09T13:37:44;102582.94;;;16.78;42.92
55550;BME280;41397;49.972;18.944;2023-04-09T13:40:45;102577.88;;;16.83;42.86
55550;BME280;41397;49.972;18.944;2023-04-09T13:43:47;102578.89;;;16.82;43.11
55550;BME280;41397;49.972;18.944;2023-04-09T13:46:48;102582.02;;;16.77;43.43
55550;BME280;41397;49.972;18.944;2023-04-09T13:49:50;102581.16;;;16.77;44.90
55550;BME280;41397;49.972;18.944;2023-04-09T13:52:55;102579.37;;;16.76;45.21
55550;BME280;41397;49.972;18.944;2023-04-09T13:56:05;102579.20;;;16.66;45.51
55550;BME280;41397;49.972;18.944;2023-04-09T13:59:08;102580.84;;;16.69;46.05
55550;BME280;41397;49.972;18.944;2023-04-09T14:02:11;102589.13;;;16.69;44.61
55550;BME280;41397;49.972;18.944;2023-04-09T14:05:29;102576.58;;;16.64;43.94
55550;BME280;41397;49.972;18.944;2023-04-09T14:08:39;102584.98;;;16.63;44.18
55550;BME280;41397;49.972;18.944;2023-04-09T14:11:41;102589.21;;;16.56;44.15
55550;BME280;41397;49.972;18.944;2023-04-09T14:14:42;102578.37;;;16.41;44.52
55550;BME280;41397;49.972;18.944;2023-04-09T14:17:44;102579.10;;;16.32;45.04
55550;BME280;41397;49.972;18.944;2023-04-09T14:20:45;102586.38;;;16.33;45.27
55550;BME280;41397;49.972;18.944;2023-04-09T14:23:47;102586.09;;;16.25;45.40
55550;BME280;41397;49.972;18.944;2023-04-09T14:26:49;102578.30;;;16.19;45.76
55550;BME280;41397;49.972;18.944;2023-04-09T14:29:53;102572.42;;;16.24;45.96
55550;BME280;41397;49.972;18.944;2023-04-09T14:32:54;102575.52;;;16.19;46.02
55550;BME280;41397;49.972;18.944;2023-04-09T14:35:56;102559.55;;;16.11;46.38
55550;BME280;41397;49.972;18.944;2023-04-09T14:38:58;102571.85;;;16.07;46.10
55550;BME280;41397;49.972;18.944;2023-04-09T14:42:00;102566.34;;;16.07;46.16
55550;BME280;41397;49.972;18.944;2023-04-09T14:45:02;102561.93;;;16.05;46.16
55550;BME280;41397;49.972;18.944;2023-04-09T14:48:04;102556.75;;;16.00;46.14
55550;BME280;41397;49.972;18.944;2023-04-09T14:51:08;102561.73;;;15.95;46.22
55550;BME280;41397;49.972;18.944;2023-04-09T14:54:16;102558.19;;;15.93;46.17
55550;BME280;41397;49.972;18.944;2023-04-09T14:57:18;102554.47;;;15.94;46.31
55550;BME280;41397;49.972;18.944;2023-04-09T15:00:20;102556.84;;;15.98;46.44
55550;BME280;41397;49.972;18.944;2023-04-09T15:03:22;102557.75;;;15.99;46.55
55550;BME280;41397;49.972;18.944;2023-04-09T15:06:24;102563.52;;;15.96;46.13
55550;BME280;41397;49.972;18.944;2023-04-09T15:09:27;102559.74;;;15.97;46.32
55550;BME280;41397;49.972;18.944;2023-04-09T15:12:32;102555.88;;;16.00;46.71
55550;BME280;41397;49.972;18.944;2023-04-09T15:15:34;102557.86;;;15.97;46.90
55550;BME280;41397;49.972;18.944;2023-04-09T15:18:36;102559.74;;;15.97;46.50
55550;BME280;41397;49.972;18.944;2023-04-09T15:21:37;102560.77;;;15.96;46.85
55550;BME280;41397;49.972;18.944;2023-04-09T15:24:38;102559.74;;;15.97;46.57
55550;BME280;41397;49.972;18.944;2023-04-09T15:27:41;102561.63;;;15.96;46.93
55550;BME280;41397;49.972;18.944;2023-04-09T15:30:42;102547.78;;;15.85;46.54
55550;BME280;41397;49.972;18.944;2023-04-09T15:33:44;102549.52;;;15.86;46.55
55550;BME280;41397;49.972;18.944;2023-04-09T15:36:49;102554.17;;;15.86;46.35
55550;BME280;41397;49.972;18.944;2023-04-09T15:39:50;102552.52;;;15.83;46.22
55550;BME280;41397;49.972;18.944;2023-04-09T15:42:52;102559.79;;;15.84;45.78
55550;BME280;41397;49.972;18.944;2023-04-09T15:45:54;102558.68;;;15.87;45.64
55550;BME280;41397;49.972;18.944;2023-04-09T15:48:55;102556.80;;;15.87;45.62
55550;BME280;41397;49.972;18.944;2023-04-09T15:51:57;102549.63;;;15.85;46.15
55550;BME280;41397;49.972;18.944;2023-04-09T15:54:58;102561.57;;;15.85;46.15
55550;BME280;41397;49.972;18.944;2023-04-09T15:57:59;102560.56;;;15.86;46.21
55550;BME280;41397;49.972;18.944;2023-04-09T16:01:06;102565.30;;;15.84;46.82
55550;BME280;41397;49.972;18.944;2023-04-09T16:04:07;102565.45;;;15.83;47.75
55550;BME280;41397;49.972;18.944;2023-04-09T16:07:10;102567.30;;;15.82;49.57
55550;BME280;41397;49.972;18.944;2023-04-09T16:10:11;102573.48;;;15.86;50.08
55550;BME280;41397;49.972;18.944;2023-04-09T16:13:14;102576.11;;;15.87;50.67
55550;BME280;41397;49.972;18.944;2023-04-09T16:16:17;102582.53;;;15.88;51.50
55550;BME280;41397;49.972;18.944;2023-04-09T16:19:19;102578.22;;;15.84;52.09
55550;BME280;41397;49.972;18.944;2023-04-09T16:22:21;102572.72;;;15.84;52.22
55550;BME280;41397;49.972;18.944;2023-04-09T16:25:22;102574.46;;;15.85;52.21
55550;BME280;41397;49.972;18.944;2023-04-09T16:28:24;102571.61;;;15.86;52.10
55550;BME280;41397;49.972;18.944;2023-04-09T16:31:26;102579.58;;;15.78;52.42
55550;BME280;41397;49.972;18.944;2023-04-09T16:34:28;102578.80;;;15.76;52.45
55550;BME280;41397;49.972;18.944;2023-04-09T16:37:31;102584.70;;;15.71;52.86
55550;BME280;41397;49.972;18.944;2023-04-09T16:42:34;102585.96;;;15.66;53.87
55550;BME280;41397;49.972;18.944;2023-04-09T16:45:36;102589.41;;;15.57;54.85
55550;BME280;41397;49.972;18.944;2023-04-09T16:48:38;102582.72;;;15.48;55.01
55550;BME280;41397;49.972;18.944;2023-04-09T16:51:42;102583.94;;;15.44;55.38
55550;BME280;41397;49.972;18.944;2023-04-09T16:54:45;102586.27;;;15.37;55.78
55550;BME280;41397;49.972;18.944;2023-04-09T16:57:47;102585.72;;;15.32;56.58
55550;BME280;41397;49.972;18.944;2023-04-09T17:00:48;102590.82;;;15.25;56.71
55550;BME280;41397;49.972;18.944;2023-04-09T17:03:51;102593.25;;;15.17;57.20
55550;BME280;41397;49.972;18.944;2023-04-09T17:06:52;102588.28;;;15.09;57.57
55550;BME280;41397;49.972;18.944;2023-04-09T17:09:53;102598.66;;;15.06;57.86
55550;BME280;41397;49.972;18.944;2023-04-09T17:12:55;102601.74;;;15.01;57.75
55550;BME280;41397;49.972;18.944;2023-04-09T17:15:58;102604.16;;;14.93;57.89
55550;BME280;41397;49.972;18.944;2023-04-09T17:19:00;102602.38;;;14.92;57.90
55550;BME280;41397;49.972;18.944;2023-04-09T17:22:02;102608.46;;;14.84;58.10
55550;BME280;41397;49.972;18.944;2023-04-09T17:25:04;102613.28;;;14.81;57.97
55550;BME280;41397;49.972;18.944;2023-04-09T17:28:06;102615.60;;;14.74;57.75
55550;BME280;41397;49.972;18.944;2023-04-09T17:31:12;102609.63;;;14.68;57.60
55550;BME280;41397;49.972;18.944;2023-04-09T17:34:14;102621.86;;;14.63;57.31
55550;BME280;41397;49.972;18.944;2023-04-09T17:37:16;102615.80;;;14.58;56.96
55550;BME280;41397;49.972;18.944;2023-04-09T17:40:17;102627.25;;;14.52;56.70
55550;BME280;41397;49.972;18.944;2023-04-09T17:43:20;102635.77;;;14.48;56.67
55550;BME280;41397;49.972;18.944;2023-04-09T17:46:21;102638.07;;;14.41;56.58
55550;BME280;41397;49.972;18.944;2023-04-09T17:49:24;102639.38;;;14.35;56.35
55550;BME280;41397;49.972;18.944;2023-04-09T17:52:27;102639.02;;;14.27;55.93
55550;BME280;41397;49.972;18.944;2023-04-09T17:55:34;102644.74;;;14.24;55.68
55550;BME280;41397;49.972;18.944;2023-04-09T17:58:36;102646.79;;;14.20;55.56
55550;BME280;41397;49.972;18.944;2023-04-09T18:01:37;102651.72;;;14.15;55.53
55550;BME280;41397;49.972;18.944;2023-04-09T18:04:39;102651.15;;;14.10;55.40
55550;BME280;41397;49.972;18.944;2023-04-09T18:07:41;102666.77;;;14.10;55.57
55550;BME280;41397;49.972;18.944;2023-04-09T18:10:43;102668.08;;;14.04;55.50
55550;BME280;41397;49.972;18.944;2023-04-09T18:13:44;102665.53;;;14.01;55.64
55550;BME280;41397;49.972;18.944;2023-04-09T18:16:46;102665.82;;;13.96;55.45
55550;BME280;41397;49.972;18.944;2023-04-09T18:19:48;102673.33;;;13.94;55.68
55550;BME280;41397;49.972;18.944;2023-04-09T18:22:50;102673.62;;;13.90;55.70
55550;BME280;41397;49.972;18.944;2023-04-09T18:25:52;102682.66;;;13.92;55.51
55550;BME280;41397;49.972;18.944;2023-04-09T18:28:53;102672.95;;;13.86;55.71
55550;BME280;41397;49.972;18.944;2023-04-09T18:31:55;102683.03;;;13.86;55.83
55550;BME280;41397;49.972;18.944;2023-04-09T18:34:58;102681.40;;;13.83;56.08
55550;BME280;41397;49.972;18.944;2023-04-09T18:37:59;102685.11;;;13.82;56.10
55550;BME280;41397;49.972;18.944;2023-04-09T18:41:01;102679.02;;;13.77;56.01
55550;BME280;41397;49.972;18.944;2023-04-09T18:44:03;102688.27;;;13.76;55.92
55550;BME280;41397;49.972;18.944;2023-04-09T18:47:05;102703.02;;;13.75;56.08
55550;BME280;41397;49.972;18.944;2023-04-09T18:50:09;102702.43;;;13.70;56.09
55550;BME280;41397;49.972;18.944;2023-04-09T18:53:14;102699.96;;;13.65;56.16
55550;BME280;41397;49.972;18.944;2023-04-09T18:56:16;102706.47;;;13.64;56.46
55550;BME280;41397;49.972;18.944;2023-04-09T18:59:18;102704.08;;;13.58;56.43
55550;BME280;41397;49.972;18.944;2023-04-09T19:02:19;102705.27;;;13.54;56.50
55550;BME280;41397;49.972;18.944;2023-04-09T19:05:21;102711.94;;;13.50;56.78
55550;BME280;41397;49.972;18.944;2023-04-09T19:08:22;102710.18;;;13.49;56.80
55550;BME280;41397;49.972;18.944;2023-04-09T19:11:24;102710.46;;;13.44;57.22
55550;BME280;41397;49.972;18.944;2023-04-09T19:14:36;102716.15;;;13.41;57.56
55550;BME280;41397;49.972;18.944;2023-04-09T19:21:11;102714.08;;;13.30;58.29
55550;BME280;41397;49.972;18.944;2023-04-09T19:24:30;102715.43;;;13.23;59.32
55550;BME280;41397;49.972;18.944;2023-04-09T19:31:07;102722.20;;;13.18;59.86
55550;BME280;41397;49.972;18.944;2023-04-09T19:34:15;102708.62;;;13.15;59.70
55550;BME280;41397;49.972;18.944;2023-04-09T19:37:30;102721.66;;;13.11;60.53
55550;BME280;41397;49.972;18.944;2023-04-09T19:40:40;102713.63;;;13.08;60.53
55550;BME280;41397;49.972;18.944;2023-04-09T19:43:44;102717.36;;;13.07;60.64
55550;BME280;41397;49.972;18.944;2023-04-09T19:46:46;102716.64;;;13.03;60.97
55550;BME280;41397;49.972;18.944;2023-04-09T19:49:51;102715.88;;;13.01;61.37
55550;BME280;41397;49.972;18.944;2023-04-09T19:52:56;102713.13;;;13.01;61.07
55550;BME280;41397;49.972;18.944;2023-04-09T19:56:05;102727.82;;;13.00;61.52
55550;BME280;41397;49.972;18.944;2023-04-09T19:59:07;102726.15;;;12.98;61.86
55550;BME280;41397;49.972;18.944;2023-04-09T20:02:08;102729.08;;;12.95;61.97
55550;BME280;41397;49.972;18.944;2023-04-09T20:05:18;102740.19;;;12.93;61.92
55550;BME280;41397;49.972;18.944;2023-04-09T20:08:36;102741.25;;;12.91;61.89
55550;BME280;41397;49.972;18.944;2023-04-09T20:11:38;102735.03;;;12.87;62.10
55550;BME280;41397;49.972;18.944;2023-04-09T20:14:45;102733.47;;;12.83;62.02